Time;durP1;ratioP1;P1;durP2;ratioP2;P2;SDS_P1;SDS_P2;PMS_P1;PMS_P2;Temp;Humidity;BMP_temperature;BMP_pressure;BME280_temperature;BME280_humidity;BME280_pressure;Samples;Min_cycle;Max_cycle;Signal;HPM_P1;HPM_P2
2023/08/07 00:01:47;;;;;;;1.07;0.50;;;17.60;68.40;16.70;96022.00;;;;5048090;28;20282;-78
2023/08/07 00:04:14;;;;;;;0.50;0.50;;;17.60;68.40;16.70;96019.00;;;;5055954;28;20302;-81
2023/08/07 00:06:41;;;;;;;0.60;0.40;;;17.60;68.50;16.70;96029.00;;;;5054205;28;20229;-80
2023/08/07 00:09:08;;;;;;;0.30;0.30;;;17.50;68.50;16.70;96025.00;;;;5055880;28;20630;-78
2023/08/07 00:11:36;;;;;;;0.33;0.33;;;17.50;69.30;16.60;96020.00;;;;5043615;28;20292;-80
2023/08/07 00:14:04;;;;;;;3.17;0.33;;;17.50;68.60;16.60;96022.00;;;;5044648;28;20224;-80
2023/08/07 00:16:33;;;;;;;0.60;0.50;;;17.50;68.70;16.60;96045.00;;;;5051919;28;20217;-80
2023/08/07 00:19:00;;;;;;;0.40;0.30;;;17.50;68.90;16.60;96035.00;;;;5045071;28;20201;-79
2023/08/07 00:21:28;;;;;;;0.40;0.30;;;17.40;68.90;16.50;96044.00;;;;5054108;28;20197;-80
2023/08/07 00:23:55;;;;;;;0.40;0.40;;;17.40;69.00;16.50;96036.00;;;;5054601;28;20777;-80
2023/08/07 00:26:23;;;;;;;0.40;0.40;;;17.40;69.10;16.50;96030.00;;;;5054532;28;20224;-81
2023/08/07 00:28:50;;;;;;;0.40;0.40;;;17.40;69.40;16.50;96043.00;;;;5056617;28;20235;-79
2023/08/07 00:31:17;;;;;;;0.50;0.50;;;17.30;69.60;16.40;96040.00;;;;5046237;28;20205;-80
2023/08/07 00:33:47;;;;;;;0.20;0.20;;;17.30;69.70;16.40;96034.00;;;;5047925;28;20201;-80
2023/08/07 00:36:14;;;;;;;0.50;0.50;;;17.30;69.90;16.40;96039.00;;;;5055411;28;20223;-80
2023/08/07 00:38:41;;;;;;;1.57;0.53;;;17.30;70.10;16.30;96032.00;;;;5056092;28;20208;-80
2023/08/07 00:41:09;;;;;;;0.40;0.40;;;17.20;70.00;16.30;96036.00;;;;5055427;28;20202;-80
2023/08/07 00:43:37;;;;;;;0.40;0.40;;;17.20;70.20;16.30;96035.00;;;;5047363;28;20201;-80
2023/08/07 00:46:05;;;;;;;0.30;0.30;;;17.20;70.20;16.20;96040.00;;;;5055549;28;20288;-79
2023/08/07 00:48:33;;;;;;;0.57;0.40;;;17.10;70.30;16.20;96037.00;;;;5054813;28;20281;-80
2023/08/07 00:51:04;;;;;;;0.40;0.40;;;17.10;70.60;16.20;96030.00;;;;5053726;28;20205;-78
2023/08/07 00:53:32;;;;;;;0.40;0.37;;;17.10;70.70;16.10;96033.00;;;;5051963;28;20212;-79
2023/08/07 00:56:00;;;;;;;0.50;0.30;;;17.00;70.70;16.00;96043.00;;;;5029522;28;20296;-79
2023/08/07 00:58:27;;;;;;;0.43;0.40;;;17.00;71.00;16.00;96034.00;;;;5054939;28;20260;-79
2023/08/07 01:00:54;;;;;;;0.30;0.30;;;16.90;71.30;15.90;96033.00;;;;5048372;28;20197;-79
2023/08/07 01:03:22;;;;;;;0.50;0.43;;;16.90;71.80;15.90;96032.00;;;;5058008;28;20189;-79
2023/08/07 01:05:49;;;;;;;0.70;0.30;;;16.90;72.10;15.90;96038.00;;;;5052451;28;20217;-79
2023/08/07 01:08:20;;;;;;;0.50;0.47;;;16.80;72.60;15.80;96033.00;;;;5057640;28;20207;-80
2023/08/07 01:11:15;;;;;;;0.40;0.37;;;16.80;72.60;15.80;96037.00;;;;5061111;28;20205;-80
2023/08/07 01:13:55;;;;;;;0.40;0.40;;;16.70;72.90;15.70;96032.00;;;;5050400;28;20285;-79
2023/08/07 01:16:33;;;;;;;0.60;0.50;;;16.70;73.00;15.70;96041.00;;;;5051451;28;20209;-79
2023/08/07 01:19:02;;;;;;;1.13;0.50;;;16.70;73.10;15.70;96033.00;;;;5045737;28;20203;-79
2023/08/07 01:21:30;;;;;;;0.67;0.67;;;16.60;73.20;15.60;96042.00;;;;5054136;28;20197;-78
2023/08/07 01:23:58;;;;;;;0.63;0.50;;;16.60;73.30;15.60;96040.00;;;;5051332;28;20586;-80
2023/08/07 01:26:26;;;;;;;0.60;0.50;;;16.60;73.80;15.50;96038.00;;;;5054758;28;20207;-78
2023/08/07 01:29:05;;;;;;;0.60;0.60;;;16.50;74.00;15.50;96044.00;;;;5046343;28;20330;-78
2023/08/07 01:31:35;;;;;;;0.63;0.63;;;16.50;74.50;15.50;96038.00;;;;5054511;28;20688;-80
2023/08/07 01:34:08;;;;;;;0.50;0.50;;;16.50;74.60;15.50;96050.00;;;;5051570;28;20213;-79
2023/08/07 01:36:37;;;;;;;1.13;0.40;;;16.40;74.80;15.40;96046.00;;;;5051591;28;20229;-80
2023/08/07 01:39:08;;;;;;;0.60;0.60;;;16.40;74.90;15.40;96043.00;;;;5052143;28;20580;-79
2023/08/07 01:41:37;;;;;;;0.70;0.40;;;16.40;75.00;15.30;96048.00;;;;5045446;28;20189;-78
2023/08/07 01:44:05;;;;;;;0.50;0.40;;;16.30;74.90;15.30;96038.00;;;;5037175;28;20226;-79
2023/08/07 01:46:33;;;;;;;1.03;0.50;;;16.30;75.10;15.20;96051.00;;;;5021391;28;20200;-80
2023/08/07 01:49:01;;;;;;;0.63;0.50;;;16.30;75.30;15.20;96039.00;;;;5054792;28;20670;-80
2023/08/07 01:51:28;;;;;;;0.50;0.50;;;16.20;75.20;15.20;96038.00;;;;5053974;28;20406;-79
2023/08/07 01:53:55;;;;;;;0.60;0.60;;;16.20;75.30;15.20;96034.00;;;;5052723;28;20235;-80
2023/08/07 01:56:24;;;;;;;1.07;0.50;;;16.20;75.50;15.10;96038.00;;;;5054041;28;20565;-80
2023/08/07 01:58:51;;;;;;;0.87;0.60;;;16.20;75.80;15.10;96033.00;;;;5047093;28;20208;-80
2023/08/07 02:01:19;;;;;;;0.60;0.47;;;16.10;75.80;15.10;96041.00;;;;5036237;28;20681;-79
2023/08/07 02:03:47;;;;;;;0.60;0.43;;;16.10;76.00;15.10;96043.00;;;;5054626;28;20200;-81
2023/08/07 02:06:14;;;;;;;2.10;0.97;;;16.10;76.10;15.10;96050.00;;;;5053911;28;20279;-79
2023/08/07 02:08:42;;;;;;;0.47;0.47;;;16.00;76.10;15.10;96047.00;;;;5053426;28;20189;-80
2023/08/07 02:11:09;;;;;;;0.53;0.47;;;16.00;77.00;15.10;96051.00;;;;5052336;28;20211;-81
2023/08/07 02:13:38;;;;;;;0.47;0.40;;;16.00;76.40;15.10;96056.00;;;;5047651;28;20705;-80
2023/08/07 02:16:05;;;;;;;0.50;0.50;;;16.00;76.50;15.00;96055.00;;;;5052114;28;20211;-80
2023/08/07 02:18:33;;;;;;;0.80;0.60;;;16.00;76.60;15.10;96054.00;;;;5037961;28;20228;-81
2023/08/07 02:21:00;;;;;;;0.67;0.60;;;16.00;76.60;15.10;96059.00;;;;5048002;28;20283;-80
2023/08/07 02:23:28;;;;;;;0.40;0.40;;;16.00;76.70;15.10;96060.00;;;;5052934;28;20199;-79
2023/08/07 02:25:56;;;;;;;1.10;0.70;;;16.00;76.90;15.00;96053.00;;;;5051916;28;20261;-79
2023/08/07 02:28:24;;;;;;;0.80;0.60;;;16.00;76.90;15.00;96067.00;;;;5048689;28;20207;-81
2023/08/07 02:30:54;;;;;;;0.60;0.57;;;16.00;76.90;15.00;96064.00;;;;5053547;28;20204;-80
2023/08/07 02:33:21;;;;;;;0.50;0.50;;;16.00;77.00;15.00;96072.00;;;;5048450;28;20224;-79
2023/08/07 02:35:50;;;;;;;1.23;0.63;;;16.00;76.90;15.00;96076.00;;;;5044680;28;20574;-80
2023/08/07 02:38:18;;;;;;;1.17;0.60;;;16.00;77.00;15.00;96078.00;;;;5048345;28;20216;-80
2023/08/07 02:40:45;;;;;;;0.87;0.60;;;15.90;76.90;14.90;96081.00;;;;5051281;28;20254;-80
2023/08/07 02:43:12;;;;;;;0.80;0.60;;;15.90;76.90;14.90;96084.00;;;;5052263;28;20262;-81
2023/08/07 02:45:40;;;;;;;1.27;0.70;;;15.90;77.00;14.90;96081.00;;;;5053736;28;20212;-81
2023/08/07 02:48:08;;;;;;;1.07;0.80;;;15.90;77.20;14.80;96080.00;;;;5056955;28;20200;-81
2023/08/07 02:50:37;;;;;;;0.93;0.50;;;15.80;77.20;14.80;96073.00;;;;5050282;28;20200;-81
2023/08/07 02:53:04;;;;;;;1.20;0.70;;;16.00;77.60;14.80;96094.00;;;;5052472;28;20199;-81
2023/08/07 02:55:31;;;;;;;1.17;0.60;;;15.80;77.70;14.90;96098.00;;;;5048798;28;20589;-79
2023/08/07 02:57:59;;;;;;;0.67;0.60;;;15.80;77.80;14.80;96084.00;;;;5053203;28;20311;-80
2023/08/07 03:00:26;;;;;;;1.73;0.60;;;15.80;77.70;14.80;96087.00;;;;5053176;28;20743;-80
2023/08/07 03:02:53;;;;;;;0.50;0.50;;;15.80;77.60;14.80;96080.00;;;;5050783;28;20293;-80
2023/08/07 03:05:22;;;;;;;0.60;0.50;;;15.80;77.70;14.80;96090.00;;;;5040246;28;20224;-81
2023/08/07 03:07:49;;;;;;;1.23;0.60;;;15.80;77.80;14.80;96087.00;;;;5057201;28;20575;-80
2023/08/07 03:10:17;;;;;;;0.70;0.70;;;15.80;77.90;14.80;96095.00;;;;5048593;28;20201;-81
2023/08/07 03:12:44;;;;;;;0.70;0.43;;;15.80;77.90;14.80;96097.00;;;;5049878;28;20284;-81
2023/08/07 03:15:12;;;;;;;1.30;0.50;;;15.80;77.80;14.80;96093.00;;;;5056472;28;20223;-81
2023/08/07 03:17:39;;;;;;;0.73;0.60;;;15.80;77.90;14.80;96100.00;;;;5058262;28;20224;-81
2023/08/07 03:20:09;;;;;;;0.83;0.50;;;15.80;78.00;14.80;96098.00;;;;5057984;28;20193;-79
2023/08/07 03:22:38;;;;;;;2.03;1.17;;;15.80;78.20;14.80;96110.00;;;;5056647;28;20200;-82
2023/08/07 03:25:06;;;;;;;0.83;0.70;;;15.80;78.20;14.80;96106.00;;;;5057605;28;20971;-80
2023/08/07 03:27:33;;;;;;;0.90;0.53;;;15.80;78.10;14.80;96105.00;;;;5056814;28;20287;-79
2023/08/07 03:30:01;;;;;;;0.60;0.60;;;15.80;78.20;14.80;96104.00;;;;5039281;28;20285;-81
2023/08/07 03:32:28;;;;;;;0.80;0.50;;;15.80;78.20;14.80;96110.00;;;;5050617;28;20659;-81
2023/08/07 03:34:57;;;;;;;0.40;0.40;;;15.80;78.20;14.80;96112.00;;;;5057110;28;20697;-80
2023/08/07 03:37:24;;;;;;;1.07;0.70;;;15.80;78.30;14.80;96112.00;;;;5057702;28;20903;-80
2023/08/07 03:39:53;;;;;;;0.90;0.60;;;15.70;78.20;14.80;96112.00;;;;5056035;28;20288;-80
2023/08/07 03:42:20;;;;;;;0.60;0.60;;;15.80;78.50;14.80;96114.00;;;;5051793;28;20201;-80
2023/08/07 03:44:47;;;;;;;1.63;0.80;;;15.80;78.60;14.80;96108.00;;;;5052501;28;20270;-82
2023/08/07 03:47:15;;;;;;;0.60;0.60;;;15.80;78.50;14.70;96117.00;;;;5041923;28;20201;-81
2023/08/07 03:49:42;;;;;;;0.70;0.70;;;15.70;78.50;14.70;96117.00;;;;5060974;28;20197;-82
2023/08/07 03:52:10;;;;;;;0.70;0.70;;;15.70;78.70;14.70;96128.00;;;;5059870;28;20608;-81
2023/08/07 03:54:37;;;;;;;1.80;0.77;;;15.70;78.70;14.70;96130.00;;;;5047948;28;20216;-81
2023/08/07 03:57:08;;;;;;;1.37;0.90;;;15.70;78.80;14.70;96138.00;;;;5049829;28;20197;-82
2023/08/07 03:59:35;;;;;;;0.83;0.60;;;15.70;78.70;14.70;96135.00;;;;5032351;28;20205;-81
2023/08/07 04:02:02;;;;;;;1.63;0.60;;;15.70;78.50;14.70;96137.00;;;;5046665;28;20277;-82
2023/08/07 04:04:30;;;;;;;1.23;0.50;;;15.70;78.50;14.60;96135.00;;;;5057220;28;20220;-80
2023/08/07 04:06:57;;;;;;;0.60;0.60;;;15.70;78.60;14.60;96140.00;;;;5057506;28;20318;-82
2023/08/07 04:09:24;;;;;;;0.70;0.70;;;15.60;78.50;14.60;96137.00;;;;5056168;28;20193;-83
2023/08/07 04:11:52;;;;;;;0.70;0.70;;;15.60;78.70;14.60;96137.00;;;;5023446;28;20201;-81
2023/08/07 04:14:21;;;;;;;1.03;0.80;;;15.60;79.00;14.60;96142.00;;;;5038001;28;20583;-82
2023/08/07 04:16:48;;;;;;;2.27;0.63;;;15.60;79.10;14.60;96137.00;;;;5041118;28;20296;-82
2023/08/07 04:19:16;;;;;;;1.23;0.60;;;15.60;79.00;14.70;96139.00;;;;5055345;28;20710;-82
2023/08/07 04:21:43;;;;;;;1.50;0.70;;;15.60;78.80;14.60;96135.00;;;;5047628;28;20195;-82
2023/08/07 04:24:11;;;;;;;1.33;0.67;;;15.60;78.90;14.60;96137.00;;;;5056245;28;20220;-82
2023/08/07 04:26:38;;;;;;;0.70;0.60;;;15.60;78.90;14.60;96143.00;;;;5048107;28;20262;-82
2023/08/07 04:29:07;;;;;;;0.93;0.80;;;15.60;79.00;14.60;96133.00;;;;5056099;28;20197;-81
2023/08/07 04:31:36;;;;;;;0.53;0.50;;;15.60;79.00;14.60;96140.00;;;;5056269;28;20192;-82
2023/08/07 04:34:04;;;;;;;2.23;0.60;;;15.60;79.00;14.60;96132.00;;;;5051242;28;20220;-83
2023/08/07 04:36:33;;;;;;;1.67;0.70;;;15.60;78.90;14.60;96145.00;;;;5056415;28;21092;-81
2023/08/07 04:39:00;;;;;;;0.80;0.67;;;15.60;79.00;14.50;96147.00;;;;5056395;28;20228;-82
2023/08/07 04:41:27;;;;;;;1.27;0.60;;;15.50;78.90;14.50;96145.00;;;;5055725;28;20682;-82
2023/08/07 04:43:54;;;;;;;0.70;0.70;;;15.50;78.90;14.50;96152.00;;;;5055172;28;20304;-82
2023/08/07 04:46:22;;;;;;;0.80;0.80;;;15.50;78.90;14.50;96150.00;;;;5054370;28;20197;-83
2023/08/07 04:48:50;;;;;;;0.70;0.70;;;15.50;78.90;14.50;96161.00;;;;5038998;28;20688;-83
2023/08/07 04:51:17;;;;;;;0.70;0.70;;;15.50;79.00;14.50;96157.00;;;;5056581;28;20295;-83
2023/08/07 04:53:45;;;;;;;1.43;0.60;;;15.50;79.20;14.50;96162.00;;;;5056373;28;20228;-80
2023/08/07 04:56:12;;;;;;;0.60;0.60;;;15.50;79.10;14.50;96154.00;;;;5056241;28;20209;-82
2023/08/07 04:58:39;;;;;;;0.60;0.60;;;15.50;78.80;14.50;96162.00;;;;5053454;28;20622;-83
2023/08/07 05:01:07;;;;;;;0.70;0.63;;;15.50;78.60;14.50;96171.00;;;;5055173;28;20220;-82
2023/08/07 05:03:34;;;;;;;1.43;0.90;;;15.50;78.60;14.50;96164.00;;;;5054892;28;20231;-82
2023/08/07 05:06:03;;;;;;;0.70;0.70;;;15.50;78.60;14.50;96176.00;;;;5049201;28;20289;-82
2023/08/07 05:08:31;;;;;;;0.53;0.53;;;15.50;78.70;14.50;96185.00;;;;5054232;28;20201;-83
2023/08/07 05:10:58;;;;;;;0.80;0.80;;;15.50;78.50;14.50;96172.00;;;;5056627;28;20244;-82
2023/08/07 05:13:25;;;;;;;0.83;0.80;;;15.50;78.40;14.50;96182.00;;;;5054480;28;20199;-83
2023/08/07 05:15:53;;;;;;;0.90;0.80;;;15.40;78.50;14.50;96185.00;;;;5018404;28;20227;-82
2023/08/07 05:18:20;;;;;;;1.30;0.70;;;15.40;78.60;14.40;96179.00;;;;5051900;28;20217;-82
2023/08/07 05:20:48;;;;;;;1.77;0.80;;;15.40;78.80;14.40;96178.00;;;;5055016;28;20203;-81
2023/08/07 05:23:17;;;;;;;0.80;0.73;;;15.40;78.80;14.40;96179.00;;;;5055846;28;20279;-81
2023/08/07 05:25:47;;;;;;;1.67;0.67;;;15.50;78.90;14.40;96178.00;;;;5045618;28;20227;-82
2023/08/07 05:28:14;;;;;;;1.03;0.90;;;15.50;78.90;14.50;96184.00;;;;5055493;28;20201;-82
2023/08/07 05:30:41;;;;;;;0.83;0.80;;;15.50;78.90;14.50;96182.00;;;;5043393;28;20203;-82
2023/08/07 05:33:09;;;;;;;1.47;0.63;;;15.50;78.80;14.50;96187.00;;;;5051810;28;20572;-82
2023/08/07 05:35:39;;;;;;;2.90;0.70;;;15.50;78.60;14.50;96197.00;;;;5055196;28;20808;-81
2023/08/07 05:38:06;;;;;;;0.87;0.70;;;15.50;78.50;14.50;96195.00;;;;5041873;28;20231;-83
2023/08/07 05:40:36;;;;;;;1.77;0.80;;;15.50;78.40;14.50;96184.00;;;;5053963;28;20201;-82
2023/08/07 05:43:04;;;;;;;2.17;1.00;;;15.50;78.50;14.50;96195.00;;;;5053922;28;20275;-82
2023/08/07 05:45:31;;;;;;;3.70;0.90;;;15.50;78.50;14.60;96194.00;;;;5044673;28;20217;-81
2023/08/07 05:47:58;;;;;;;2.33;0.90;;;15.50;78.40;14.60;96190.00;;;;5053382;28;20759;-81
2023/08/07 05:50:26;;;;;;;0.63;0.63;;;15.50;78.40;14.60;96217.00;;;;5055272;28;20188;-82
2023/08/07 05:52:53;;;;;;;0.77;0.70;;;15.60;78.50;14.60;96213.00;;;;5052907;28;20637;-82
2023/08/07 05:55:21;;;;;;;1.13;0.83;;;15.60;78.50;14.60;96206.00;;;;5052536;28;20220;-83
2023/08/07 05:57:50;;;;;;;2.60;0.83;;;15.60;78.30;14.70;96210.00;;;;5048480;28;20252;-82
2023/08/07 06:00:19;;;;;;;1.10;0.80;;;15.60;77.90;14.60;96206.00;;;;5053093;28;20216;-84
2023/08/07 06:02:47;;;;;;;0.60;0.60;;;15.60;77.70;14.70;96207.00;;;;5056675;28;20620;-83
2023/08/07 06:05:14;;;;;;;1.57;0.70;;;15.60;77.80;14.70;96215.00;;;;5055884;28;20270;-83
2023/08/07 06:07:42;;;;;;;1.47;0.77;;;15.60;78.70;14.70;96227.00;;;;5054411;28;20641;-84
2023/08/07 06:10:10;;;;;;;1.03;0.80;;;15.70;78.00;14.80;96227.00;;;;5037483;28;20197;-84
2023/08/07 06:12:37;;;;;;;0.50;0.50;;;15.70;77.70;14.80;96232.00;;;;5054105;28;20662;-83
2023/08/07 06:15:08;;;;;;;0.77;0.70;;;15.70;77.60;14.90;96219.00;;;;5058144;28;20217;-84
2023/08/07 06:17:35;;;;;;;1.50;0.93;;;15.80;77.50;14.90;96230.00;;;;5055998;28;20197;-84
2023/08/07 06:20:04;;;;;;;3.00;0.80;;;15.80;77.60;14.90;96234.00;;;;5056257;28;20713;-84
2023/08/07 06:22:32;;;;;;;1.60;0.90;;;15.80;77.20;15.00;96234.00;;;;5052405;28;20216;-84
2023/08/07 06:24:59;;;;;;;1.33;0.80;;;15.90;77.80;15.00;96233.00;;;;5054138;28;20216;-85
2023/08/07 06:27:27;;;;;;;1.00;0.77;;;15.90;76.90;15.00;96234.00;;;;5055898;28;20200;-84
2023/08/07 06:29:55;;;;;;;1.23;0.87;;;15.90;76.50;15.00;96239.00;;;;5045149;28;20204;-85
2023/08/07 06:32:25;;;;;;;0.97;0.70;;;15.90;76.50;15.00;96241.00;;;;5051390;28;20211;-84
2023/08/07 06:34:53;;;;;;;2.23;1.10;;;15.90;76.30;15.00;96238.00;;;;5052296;28;20698;-84
2023/08/07 06:37:21;;;;;;;1.03;0.80;;;15.90;76.10;15.10;96238.00;;;;5052840;28;20227;-82
2023/08/07 06:39:48;;;;;;;1.53;1.37;;;16.00;76.20;15.10;96248.00;;;;5046543;28;20312;-86
2023/08/07 06:42:15;;;;;;;0.90;0.63;;;16.00;75.90;15.20;96240.00;;;;5050335;28;20303;-84
2023/08/07 06:44:42;;;;;;;0.90;0.80;;;16.00;75.80;15.20;96246.00;;;;5055129;28;20213;-85
2023/08/07 06:47:10;;;;;;;1.00;0.90;;;16.10;75.80;15.20;96248.00;;;;5055635;28;20287;-83
2023/08/07 06:49:39;;;;;;;0.73;0.73;;;16.10;75.80;15.20;96253.00;;;;5056790;28;20200;-86
2023/08/07 06:52:07;;;;;;;1.10;0.90;;;16.10;75.40;15.30;96256.00;;;;5062260;28;20212;-83
2023/08/07 06:54:34;;;;;;;1.93;0.90;;;16.10;75.20;15.30;96254.00;;;;5050761;28;20218;-85
2023/08/07 06:57:02;;;;;;;1.40;0.70;;;16.20;75.20;15.40;96264.00;;;;5027774;28;20285;-86
2023/08/07 06:59:29;;;;;;;0.83;0.77;;;16.20;75.10;15.40;96262.00;;;;5062346;28;20252;-85
2023/08/07 07:01:58;;;;;;;1.13;0.83;;;16.20;75.40;15.40;96257.00;;;;5045105;28;20205;-84
2023/08/07 07:04:25;;;;;;;0.93;0.67;;;16.30;75.50;15.50;96268.00;;;;5056003;28;20255;-85
2023/08/07 07:06:54;;;;;;;1.30;0.87;;;16.30;75.20;15.50;96259.00;;;;5047260;28;20197;-86
2023/08/07 07:09:21;;;;;;;0.60;0.60;;;16.30;74.90;15.60;96265.00;;;;5037923;28;20296;-86
2023/08/07 07:11:48;;;;;;;2.53;0.93;;;16.40;75.00;15.60;96260.00;;;;5047611;28;20288;-84
2023/08/07 07:14:16;;;;;;;1.50;0.80;;;16.40;75.10;15.70;96267.00;;;;5039417;28;20899;-86
2023/08/07 07:16:43;;;;;;;0.97;0.80;;;16.50;74.80;15.70;96260.00;;;;5042911;28;20599;-86
2023/08/07 07:19:10;;;;;;;0.70;0.63;;;16.50;74.90;15.80;96269.00;;;;5031356;28;20899;-84
2023/08/07 07:21:37;;;;;;;1.67;0.83;;;16.60;74.80;15.80;96274.00;;;;5050397;28;20566;-85
2023/08/07 07:24:08;;;;;;;0.77;0.77;;;16.60;74.80;15.90;96268.00;;;;5044324;28;20217;-93
2023/08/07 07:26:35;;;;;;;0.70;0.70;;;16.70;74.60;16.00;96271.00;;;;5035786;28;20674;-86
2023/08/07 07:29:02;;;;;;;2.33;0.80;;;16.70;74.50;16.00;96270.00;;;;5050894;28;20212;-85
2023/08/07 07:31:29;;;;;;;0.87;0.73;;;16.80;74.00;16.10;96288.00;;;;5045420;28;20189;-86
2023/08/07 07:33:57;;;;;;;0.70;0.60;;;16.80;74.00;16.20;96295.00;;;;5052843;28;20224;-86
2023/08/07 07:36:24;;;;;;;1.40;0.80;;;16.90;74.30;16.20;96298.00;;;;5034652;28;20194;-88
2023/08/07 07:38:52;;;;;;;1.33;0.80;;;17.00;74.20;16.30;96295.00;;;;5052161;28;20607;-85
2023/08/07 07:41:21;;;;;;;1.37;0.67;;;17.00;73.90;16.40;96300.00;;;;5051105;28;20200;-86
2023/08/07 07:43:48;;;;;;;2.00;0.80;;;17.10;73.30;16.40;96307.00;;;;5047841;28;20680;-85
2023/08/07 07:46:15;;;;;;;1.57;0.90;;;17.10;73.10;16.50;96308.00;;;;5048654;28;20687;-86
2023/08/07 07:48:43;;;;;;;1.33;0.70;;;17.20;72.50;16.50;96300.00;;;;5055720;28;20227;-87
2023/08/07 07:51:10;;;;;;;0.67;0.67;;;17.30;72.50;16.60;96301.00;;;;5035797;28;20209;-84
2023/08/07 07:53:37;;;;;;;1.70;0.70;;;17.30;72.50;16.60;96311.00;;;;5049846;28;20229;-86
2023/08/07 07:56:05;;;;;;;0.60;0.60;;;17.30;72.20;16.70;96314.00;;;;5052967;28;20301;-86
2023/08/07 07:58:34;;;;;;;0.70;0.70;;;17.40;72.00;16.80;96312.00;;;;5055571;28;20224;-85
2023/08/07 08:01:01;;;;;;;0.93;0.80;;;17.40;71.30;16.80;96316.00;;;;5056536;28;20709;-85
2023/08/07 08:03:31;;;;;;;0.60;0.60;;;17.50;71.40;16.90;96319.00;;;;5055460;28;20646;-85
2023/08/07 08:05:58;;;;;;;0.80;0.73;;;17.60;70.90;16.90;96314.00;;;;5053174;28;20201;-85
2023/08/07 08:08:26;;;;;;;0.97;0.80;;;17.60;70.80;17.00;96322.00;;;;5052000;28;20205;-86
2023/08/07 08:10:53;;;;;;;1.40;0.70;;;17.70;70.30;17.10;96317.00;;;;5048620;28;20287;-85
2023/08/07 08:13:20;;;;;;;0.80;0.60;;;17.70;69.90;17.10;96326.00;;;;5053270;28;20203;-84
2023/08/07 08:15:50;;;;;;;0.77;0.70;;;17.80;69.10;17.20;96331.00;;;;5048070;28;20693;-85
2023/08/07 08:18:17;;;;;;;1.90;0.67;;;17.80;69.30;17.20;96333.00;;;;5046314;28;20288;-85
2023/08/07 08:20:45;;;;;;;0.70;0.70;;;17.90;69.70;17.20;96338.00;;;;5050206;28;20217;-85
2023/08/07 08:23:12;;;;;;;1.70;1.03;;;17.90;69.20;17.30;96339.00;;;;5049563;28;20284;-85
2023/08/07 08:25:39;;;;;;;1.10;0.87;;;17.90;68.60;17.30;96331.00;;;;5054892;28;20208;-83
2023/08/07 08:28:06;;;;;;;0.53;0.53;;;18.00;68.70;17.30;96354.00;;;;5037396;28;20276;-84
2023/08/07 08:30:34;;;;;;;1.43;0.70;;;18.00;68.30;17.40;96351.00;;;;5050465;28;20209;-84
2023/08/07 08:33:02;;;;;;;0.60;0.60;;;18.10;68.10;17.40;96338.00;;;;5051524;28;20201;-82
2023/08/07 08:35:30;;;;;;;1.57;0.73;;;18.10;67.60;17.50;96353.00;;;;5050171;28;20212;-84
2023/08/07 08:37:58;;;;;;;0.80;0.80;;;18.10;67.90;17.50;96345.00;;;;5057560;28;20200;-85
2023/08/07 08:40:26;;;;;;;0.60;0.60;;;18.20;67.50;17.50;96354.00;;;;5057818;28;20220;-84
2023/08/07 08:42:57;;;;;;;2.10;0.60;;;18.20;66.50;17.50;96381.00;;;;5065235;28;20765;-83
2023/08/07 08:45:29;;;;;;;0.87;0.80;;;18.20;66.60;17.60;96359.00;;;;5067582;28;20220;-83
2023/08/07 08:48:05;;;;;;;0.80;0.80;;;18.30;66.50;17.60;96376.00;;;;5061129;28;20303;-83
2023/08/07 08:50:33;;;;;;;0.57;0.40;;;18.30;65.90;17.60;96366.00;;;;5054031;28;20200;-85
2023/08/07 08:53:02;;;;;;;0.83;0.80;;;18.30;65.80;17.60;96375.00;;;;5053339;28;20207;-82
2023/08/07 08:55:31;;;;;;;1.10;1.00;;;18.30;65.40;17.60;96364.00;;;;5052955;28;20216;-83
2023/08/07 08:58:01;;;;;;;0.97;0.80;;;18.30;65.30;17.60;96372.00;;;;5057514;28;20676;-83
2023/08/07 09:00:30;;;;;;;0.70;0.70;;;18.30;64.60;17.70;96370.00;;;;5056434;28;20263;-85
2023/08/07 09:02:58;;;;;;;1.33;0.87;;;18.40;65.30;17.70;96372.00;;;;5058042;28;20205;-83
2023/08/07 09:05:28;;;;;;;1.50;0.60;;;18.40;65.60;17.80;96373.00;;;;5056169;28;20231;-83
2023/08/07 09:07:57;;;;;;;0.70;0.70;;;18.40;65.40;17.80;96378.00;;;;5052542;28;20247;-82
2023/08/07 09:10:25;;;;;;;0.60;0.60;;;18.50;65.60;17.90;96379.00;;;;5045776;28;20255;-80
2023/08/07 09:13:04;;;;;;;0.60;0.60;;;18.50;65.20;18.00;96387.00;;;;5055319;28;20210;-82
2023/08/07 09:15:34;;;;;;;1.30;0.80;;;18.60;65.10;18.00;96380.00;;;;5059974;28;20224;-85
2023/08/07 09:18:07;;;;;;;0.57;0.57;;;18.60;65.30;18.10;96391.00;;;;5053450;28;20283;-84
2023/08/07 09:20:39;;;;;;;0.80;0.80;;;18.70;65.90;18.10;96384.00;;;;5053197;28;20213;-84
2023/08/07 09:23:06;;;;;;;0.60;0.60;;;18.70;65.30;18.20;96399.00;;;;5054549;28;20204;-84
2023/08/07 09:25:36;;;;;;;0.43;0.43;;;18.70;65.00;18.10;96393.00;;;;5052922;28;20227;-83
2023/08/07 09:28:05;;;;;;;1.13;0.70;;;18.80;64.40;18.20;96390.00;;;;5053430;28;20212;-83
2023/08/07 09:30:35;;;;;;;0.80;0.80;;;18.80;63.70;18.20;96394.00;;;;5070177;28;20275;-83
2023/08/07 09:33:03;;;;;;;0.60;0.60;;;18.80;63.50;18.20;96390.00;;;;5054889;28;20201;-83
2023/08/07 09:35:33;;;;;;;0.60;0.60;;;18.80;63.40;18.20;96385.00;;;;5049975;28;20753;-80
2023/08/07 09:38:03;;;;;;;1.83;0.80;;;18.80;63.40;18.20;96392.00;;;;5049701;28;20677;-82
2023/08/07 09:40:31;;;;;;;0.90;0.70;;;18.90;63.20;18.20;96397.00;;;;5054383;28;20216;-84
2023/08/07 09:42:59;;;;;;;1.40;0.97;;;18.90;63.20;18.30;96397.00;;;;5054374;28;20574;-81
2023/08/07 09:45:29;;;;;;;0.63;0.60;;;18.90;62.30;18.30;96398.00;;;;5052310;28;20600;-88
2023/08/07 09:48:01;;;;;;;0.77;0.50;;;18.90;62.10;18.30;96391.00;;;;5042270;28;20204;-83
2023/08/07 09:50:29;;;;;;;0.83;0.83;;;19.00;62.10;18.30;96404.00;;;;5052456;28;20196;-81
2023/08/07 09:52:58;;;;;;;2.47;0.70;;;19.00;62.90;18.40;96393.00;;;;5052955;28;20201;-82
2023/08/07 09:55:27;;;;;;;0.87;0.77;;;19.10;63.10;18.40;96390.00;;;;5054379;28;20579;-83
2023/08/07 09:57:55;;;;;;;0.70;0.70;;;19.10;62.60;18.50;96395.00;;;;5051391;28;20644;-82
2023/08/07 10:00:23;;;;;;;0.90;0.90;;;19.20;63.10;18.60;96398.00;;;;5053896;28;20312;-82
2023/08/07 10:02:51;;;;;;;0.77;0.77;;;19.20;63.10;18.60;96395.00;;;;5035990;28;20201;-82
2023/08/07 10:05:19;;;;;;;1.07;0.70;;;19.30;62.50;18.60;96397.00;;;;5052754;28;20227;-80
2023/08/07 10:07:49;;;;;;;1.50;0.97;;;19.30;62.10;18.70;96404.00;;;;5045230;28;20205;-82
2023/08/07 10:10:17;;;;;;;1.47;0.90;;;19.40;61.60;18.70;96392.00;;;;5053721;28;20227;-81
2023/08/07 10:12:47;;;;;;;0.70;0.70;;;19.40;61.60;18.70;96389.00;;;;5052393;28;20292;-81
2023/08/07 10:15:16;;;;;;;0.70;0.67;;;19.40;61.60;18.80;96398.00;;;;5044682;28;20253;-82
2023/08/07 10:17:44;;;;;;;1.77;0.80;;;19.50;61.40;18.80;96408.00;;;;5052376;28;20673;-81
2023/08/07 10:20:12;;;;;;;1.00;0.70;;;19.50;61.60;18.90;96396.00;;;;5051360;28;20281;-80
2023/08/07 10:22:43;;;;;;;0.93;0.83;;;19.60;61.40;18.90;96394.00;;;;5043331;28;20203;-84
2023/08/07 10:25:10;;;;;;;0.60;0.60;;;19.60;60.50;18.90;96405.00;;;;5050020;28;20300;-81
2023/08/07 10:27:44;;;;;;;1.00;0.90;;;19.60;60.30;18.90;96411.00;;;;5049426;28;20196;-80
2023/08/07 10:30:18;;;;;;;1.17;0.83;;;19.60;59.70;18.90;96405.00;;;;5047649;28;20212;-82
2023/08/07 10:32:46;;;;;;;0.97;0.70;;;19.60;59.40;18.90;96417.00;;;;5054907;28;20552;-83
2023/08/07 10:35:26;;;;;;;0.93;0.60;;;19.60;59.40;18.90;96423.00;;;;5052808;28;20224;-82
2023/08/07 10:37:55;;;;;;;0.50;0.50;;;19.70;59.30;18.90;96414.00;;;;5055162;28;20196;-82
2023/08/07 10:40:22;;;;;;;0.63;0.63;;;19.70;59.60;19.00;96415.00;;;;5046974;28;20226;-82
2023/08/07 10:42:57;;;;;;;1.00;0.70;;;19.70;59.50;19.00;96419.00;;;;5054321;28;20628;-82
2023/08/07 10:45:29;;;;;;;0.97;0.70;;;19.70;59.40;19.00;96416.00;;;;5054704;28;20227;-82
2023/08/07 10:48:07;;;;;;;0.73;0.60;;;19.70;59.40;19.10;96419.00;;;;5027487;28;20428;-82
2023/08/07 10:50:36;;;;;;;1.03;0.97;;;19.80;60.40;19.10;96411.00;;;;5053667;28;20206;-81
2023/08/07 10:53:05;;;;;;;0.50;0.50;;;19.80;60.00;19.30;96405.00;;;;5054940;28;20250;-80
2023/08/07 10:55:46;;;;;;;0.60;0.60;;;19.90;60.60;19.40;96403.00;;;;5046619;28;20267;-83
2023/08/07 10:58:24;;;;;;;0.60;0.50;;;20.00;59.80;19.60;96414.00;;;;5057336;28;20204;-82
2023/08/07 11:01:18;;;;;;;0.53;0.53;;;20.10;59.20;19.70;96420.00;;;;5054456;28;20307;-82